Time;durP1;ratioP1;P1;durP2;ratioP2;P2;SDS_P1;SDS_P2;PMS_P1;PMS_P2;Temp;Humidity;BMP_temperature;BMP_pressure;BME280_temperature;BME280_humidity;BME280_pressure;Samples;Min_cycle;Max_cycle;Signal;HPM_P1;HPM_P2
2023/07/19 00:01:51;;;;;;;4.23;1.23;;;16.50;94.50;;;;;;5073269;28;20180;-67
2023/07/19 00:04:18;;;;;;;1.47;0.80;;;16.70;94.30;;;;;;5073282;28;20195;-68
2023/07/19 00:06:46;;;;;;;3.80;0.97;;;17.20;91.90;;;;;;5073387;28;20185;-68
2023/07/19 00:09:14;;;;;;;2.37;0.90;;;17.00;83.10;;;;;;5073474;28;20207;-67
2023/07/19 00:11:42;;;;;;;3.00;0.93;;;16.90;87.10;;;;;;5072992;28;20183;-68
2023/07/19 00:14:10;;;;;;;2.90;0.80;;;17.40;84.10;;;;;;5073069;28;20177;-69
2023/07/19 00:16:37;;;;;;;3.37;0.97;;;17.80;82.60;;;;;;5071449;28;20230;-68
2023/07/19 00:19:05;;;;;;;1.63;1.00;;;18.10;73.50;;;;;;5073010;28;20215;-69
2023/07/19 00:21:33;;;;;;;1.63;0.70;;;17.90;63.60;;;;;;5073073;28;20258;-70
2023/07/19 00:24:01;;;;;;;1.50;0.80;;;17.70;68.80;;;;;;5072873;28;20545;-69
2023/07/19 00:26:28;;;;;;;0.70;0.60;;;18.00;62.20;;;;;;5072423;28;20177;-67
2023/07/19 00:28:56;;;;;;;0.67;0.60;;;17.80;59.80;;;;;;5072858;28;20204;-70
2023/07/19 00:31:24;;;;;;;1.97;0.97;;;17.90;53.90;;;;;;5072937;28;20236;-70
2023/07/19 00:33:52;;;;;;;3.90;1.10;;;18.00;52.50;;;;;;5073057;28;20175;-69
2023/07/19 00:36:19;;;;;;;4.10;1.37;;;17.90;51.10;;;;;;5071484;28;20181;-68
2023/07/19 00:38:47;;;;;;;1.63;0.80;;;18.10;44.40;;;;;;5072781;28;20770;-69
2023/07/19 00:41:15;;;;;;;1.00;0.80;;;18.40;44.50;;;;;;5071602;28;20679;-68
2023/07/19 00:43:43;;;;;;;2.03;0.80;;;18.00;43.70;;;;;;5072868;28;20200;-68
2023/07/19 00:46:11;;;;;;;1.83;0.80;;;18.30;45.60;;;;;;5072950;28;20167;-71
2023/07/19 00:48:38;;;;;;;1.50;0.90;;;18.20;36.50;;;;;;5072840;28;20525;-70
2023/07/19 00:51:06;;;;;;;5.20;0.90;;;18.30;39.50;;;;;;5072724;28;20282;-68
2023/07/19 00:53:36;;;;;;;2.77;0.90;;;18.70;38.20;;;;;;5072740;28;20198;-70
2023/07/19 00:56:04;;;;;;;3.80;0.90;;;18.90;37.40;;;;;;5072776;28;20174;-69
2023/07/19 00:58:32;;;;;;;3.20;0.87;;;19.50;34.40;;;;;;5072824;28;20200;-67
2023/07/19 01:01:00;;;;;;;3.70;0.80;;;20.00;31.90;;;;;;5071090;28;20179;-68
2023/07/19 01:03:28;;;;;;;5.30;0.90;;;20.00;33.20;;;;;;5072508;28;20178;-69
2023/07/19 01:06:01;;;;;;;1.47;0.60;;;19.90;28.10;;;;;;5072524;28;20533;-71
2023/07/19 01:08:29;;;;;;;2.57;0.90;;;20.70;26.80;;;;;;5072626;28;20183;-68
2023/07/19 01:10:57;;;;;;;4.10;0.80;;;20.40;21.90;;;;;;5072322;28;20263;-69
2023/07/19 01:13:24;;;;;;;3.13;0.80;;;19.80;17.10;;;;;;5072658;28;20191;-71
2023/07/19 01:15:52;;;;;;;3.53;1.00;;;19.80;17.30;;;;;;5073673;28;20616;-69
2023/07/19 01:18:20;;;;;;;3.60;0.70;;;19.50;14.80;;;;;;5073651;28;20216;-68
2023/07/19 01:20:48;;;;;;;1.50;0.77;;;19.60;16.30;;;;;;5072272;28;20172;-68
2023/07/19 01:23:16;;;;;;;3.50;0.80;;;20.10;17.20;;;;;;5072567;28;20184;-67
2023/07/19 01:25:44;;;;;;;2.87;1.07;;;20.00;14.40;;;;;;5072467;28;20173;-69
2023/07/19 01:28:11;;;;;;;2.40;0.77;;;19.70;15.10;;;;;;5072272;28;20715;-68
2023/07/19 01:30:39;;;;;;;1.47;0.60;;;19.90;15.50;;;;;;5072330;28;20748;-70
2023/07/19 01:33:07;;;;;;;3.63;0.80;;;20.20;17.10;;;;;;5070984;28;20211;-67
2023/07/19 01:35:35;;;;;;;1.47;0.80;;;20.40;13.10;;;;;;5072561;28;20172;-67
2023/07/19 01:38:02;;;;;;;1.43;0.60;;;20.30;14.10;;;;;;5074829;28;20736;-67
2023/07/19 01:40:30;;;;;;;2.50;0.70;;;20.00;15.80;;;;;;5075824;28;20538;-67
2023/07/19 01:42:58;;;;;;;3.03;0.80;;;20.20;14.90;;;;;;5075689;28;20253;-67
2023/07/19 01:45:25;;;;;;;2.93;1.00;;;20.00;14.10;;;;;;5075747;28;20187;-67
2023/07/19 01:47:53;;;;;;;2.73;0.80;;;19.90;14.60;;;;;;5075732;28;20179;-69
2023/07/19 01:50:20;;;;;;;2.03;0.83;;;20.30;16.00;;;;;;5074215;28;20176;-68
2023/07/19 01:52:49;;;;;;;2.63;1.00;;;20.90;15.30;;;;;;5075730;28;20183;-68
2023/07/19 01:55:16;;;;;;;6.07;0.83;;;20.90;14.10;;;;;;5076016;28;20175;-67
2023/07/19 01:57:44;;;;;;;2.57;0.80;;;21.00;15.40;;;;;;5075521;28;20208;-69
2023/07/19 02:00:12;;;;;;;4.17;0.90;;;20.80;16.30;;;;;;5075672;28;20176;-68
2023/07/19 02:02:39;;;;;;;3.67;0.80;;;20.80;16.10;;;;;;5075426;28;20192;-66
2023/07/19 02:05:07;;;;;;;3.90;0.80;;;20.00;15.70;;;;;;5075578;28;20176;-67
2023/07/19 02:07:35;;;;;;;3.63;0.73;;;20.10;14.90;;;;;;5075354;28;20173;-68
2023/07/19 02:10:03;;;;;;;2.33;0.97;;;20.00;15.00;;;;;;5075218;28;20183;-68
2023/07/19 02:12:30;;;;;;;1.77;0.70;;;20.30;15.00;;;;;;5075368;28;20267;-68
2023/07/19 02:14:57;;;;;;;3.10;1.00;;;20.90;13.30;;;;;;5075377;28;20259;-69
2023/07/19 02:17:25;;;;;;;3.73;0.80;;;20.90;13.30;;;;;;5075111;28;20310;-70
2023/07/19 02:19:52;;;;;;;4.73;1.27;;;20.90;15.60;;;;;;5075455;28;20615;-68
2023/07/19 02:22:19;;;;;;;3.63;0.97;;;20.70;12.10;;;;;;5075170;28;20204;-67
2023/07/19 02:24:47;;;;;;;2.87;1.00;;;20.90;11.60;;;;;;5075389;28;20277;-70
2023/07/19 02:27:14;;;;;;;1.73;0.80;;;21.40;15.50;;;;;;5074903;28;20183;-70
2023/07/19 02:29:41;;;;;;;1.67;0.77;;;21.20;12.20;;;;;;5074966;28;20184;-68
2023/07/19 02:32:09;;;;;;;2.10;0.87;;;20.80;10.60;;;;;;5073497;28;20180;-68
2023/07/19 02:34:36;;;;;;;3.77;0.90;;;20.40;11.20;;;;;;5075058;28;20189;-69
2023/07/19 02:37:04;;;;;;;3.13;0.93;;;20.40;13.00;;;;;;5075222;28;20164;-67
2023/07/19 02:39:31;;;;;;;2.23;0.80;;;20.80;12.80;;;;;;5074773;28;20204;-68
2023/07/19 02:41:59;;;;;;;2.67;0.80;;;20.90;13.00;;;;;;5074677;28;20205;-69
2023/07/19 02:44:26;;;;;;;3.13;1.00;;;21.30;11.20;;;;;;5075051;28;20679;-68
2023/07/19 02:46:53;;;;;;;2.10;1.10;;;21.20;11.70;;;;;;5074708;28;20179;-68
2023/07/19 02:49:21;;;;;;;2.97;1.10;;;21.10;12.90;;;;;;5073203;28;20222;-67
2023/07/19 02:51:48;;;;;;;1.53;0.80;;;21.40;13.50;;;;;;5074195;28;20550;-69
2023/07/19 02:54:16;;;;;;;4.77;0.83;;;21.20;13.70;;;;;;5074422;28;20535;-68
2023/07/19 02:56:43;;;;;;;2.90;0.67;;;21.50;10.30;;;;;;5074465;28;20168;-67
2023/07/19 02:59:11;;;;;;;2.50;0.80;;;21.40;11.30;;;;;;5074354;28;20210;-67
2023/07/19 03:01:39;;;;;;;2.43;0.90;;;21.10;8.70;;;;;;5074606;28;20177;-68
2023/07/19 03:04:07;;;;;;;2.03;0.80;;;21.10;12.20;;;;;;5074270;28;20234;-67
2023/07/19 03:06:34;;;;;;;3.73;1.20;;;21.30;9.50;;;;;;5074127;28;20171;-67
2023/07/19 03:09:02;;;;;;;3.67;1.00;;;21.30;9.30;;;;;;5074186;28;20172;-69
2023/07/19 03:11:30;;;;;;;4.80;0.90;;;21.30;10.00;;;;;;5074055;28;20195;-67
2023/07/19 03:13:57;;;;;;;2.47;1.07;;;21.40;9.70;;;;;;5074144;28;20645;-68
2023/07/19 03:16:25;;;;;;;2.93;0.77;;;21.80;7.30;;;;;;5073745;28;20225;-67
2023/07/19 03:18:52;;;;;;;2.07;0.80;;;21.50;8.70;;;;;;5073875;28;20678;-68
2023/07/19 03:21:20;;;;;;;3.30;1.20;;;21.60;7.90;;;;;;5074039;28;20175;-68
2023/07/19 03:23:47;;;;;;;4.70;0.70;;;21.20;7.60;;;;;;5074018;28;20227;-68
2023/07/19 03:26:15;;;;;;;1.17;0.70;;;21.30;8.30;;;;;;5073916;28;20179;-69
2023/07/19 03:28:42;;;;;;;2.07;0.70;;;21.60;8.00;;;;;;5074186;28;20643;-67
2023/07/19 03:31:13;;;;;;;1.93;0.90;;;21.80;8.70;;;;;;5073701;28;20579;-68
2023/07/19 03:33:40;;;;;;;1.87;0.70;;;21.90;8.20;;;;;;5073759;28;20204;-67
2023/07/19 03:36:07;;;;;;;2.07;0.70;;;22.10;8.80;;;;;;5073746;28;20190;-69
2023/07/19 03:38:35;;;;;;;2.47;0.90;;;22.20;8.50;;;;;;5073575;28;20212;-68
2023/07/19 03:41:09;;;;;;;1.30;0.63;;;21.80;5.50;;;;;;5073686;28;20261;-69
2023/07/19 03:43:37;;;;;;;2.97;0.93;;;21.30;5.90;;;;;;5073484;28;20554;-67
2023/07/19 03:46:08;;;;;;;2.70;0.73;;;21.40;7.10;;;;;;5072218;28;20180;-67
2023/07/19 03:48:37;;;;;;;4.00;0.87;;;21.70;8.50;;;;;;5073447;28;20186;-71
2023/07/19 03:51:04;;;;;;;1.37;0.73;;;22.10;8.20;;;;;;5072144;28;20176;-67
2023/07/19 03:53:32;;;;;;;1.87;0.77;;;22.00;6.20;;;;;;5072302;28;20190;-68
2023/07/19 03:56:00;;;;;;;1.50;0.90;;;22.40;6.20;;;;;;5073413;28;20194;-67
2023/07/19 03:58:28;;;;;;;2.20;0.77;;;22.50;7.50;;;;;;5073163;28;20269;-68
2023/07/19 04:00:58;;;;;;;2.17;0.90;;;22.30;5.70;;;;;;5072618;28;20266;-70
2023/07/19 04:03:29;;;;;;;2.03;0.83;;;22.10;6.10;;;;;;5073322;28;20626;-68
2023/07/19 04:05:58;;;;;;;2.83;0.83;;;22.10;5.50;;;;;;5073440;28;20594;-68
2023/07/19 04:08:26;;;;;;;4.83;0.90;;;21.80;5.30;;;;;;5073372;28;20175;-68
2023/07/19 04:10:53;;;;;;;4.73;0.90;;;21.60;4.30;;;;;;5072997;28;20175;-68
2023/07/19 04:13:21;;;;;;;2.27;0.80;;;21.20;4.20;;;;;;5073134;28;20215;-68
2023/07/19 04:15:48;;;;;;;1.67;0.70;;;21.30;4.50;;;;;;5072719;28;20203;-68
2023/07/19 04:18:19;;;;;;;4.67;0.67;;;21.70;6.20;;;;;;5071587;28;20289;-67
2023/07/19 04:21:00;;;;;;;1.70;0.73;;;21.90;4.10;;;;;;5073053;28;20237;-68
2023/07/19 04:23:27;;;;;;;2.13;0.57;;;21.50;5.40;;;;;;5073008;28;20176;-67
2023/07/19 04:25:55;;;;;;;2.10;0.80;;;21.50;4.50;;;;;;5072866;28;20172;-68
2023/07/19 04:28:22;;;;;;;4.67;0.70;;;21.70;3.20;;;;;;5073110;28;20266;-68
2023/07/19 04:30:50;;;;;;;2.47;0.87;;;21.60;5.30;;;;;;5072900;28;20183;-67
2023/07/19 04:33:17;;;;;;;1.43;0.70;;;21.50;5.10;;;;;;5073461;28;20175;-69
2023/07/19 04:35:45;;;;;;;1.80;0.70;;;21.30;4.50;;;;;;5073401;28;20179;-70
2023/07/19 04:38:16;;;;;;;3.93;1.13;;;21.10;4.40;;;;;;5072955;28;20226;-69
2023/07/19 04:40:43;;;;;;;2.67;0.70;;;21.30;4.70;;;;;;5072924;28;20172;-67
2023/07/19 04:43:10;;;;;;;2.37;0.97;;;21.00;3.70;;;;;;5072919;28;20207;-70
2023/07/19 04:45:38;;;;;;;0.90;0.70;;;20.90;4.40;;;;;;5072755;28;20176;-67
2023/07/19 04:48:05;;;;;;;1.27;0.60;;;20.90;3.60;;;;;;5071562;28;20187;-67
2023/07/19 04:50:32;;;;;;;1.63;0.80;;;20.90;4.50;;;;;;5072640;28;20168;-67
2023/07/19 04:53:00;;;;;;;3.27;0.93;;;21.00;3.30;;;;;;5073103;28;20206;-67
2023/07/19 04:55:27;;;;;;;0.97;0.50;;;20.60;3.30;;;;;;5071250;28;20190;-67
2023/07/19 04:57:54;;;;;;;2.70;0.90;;;20.60;3.80;;;;;;5072843;28;20199;-68
2023/07/19 05:00:22;;;;;;;3.17;0.90;;;20.70;4.80;;;;;;5071469;28;20187;-67
2023/07/19 05:02:50;;;;;;;4.83;0.60;;;20.40;3.70;;;;;;5072889;28;20179;-68
2023/07/19 05:05:17;;;;;;;1.13;0.60;;;20.60;4.80;;;;;;5072603;28;20698;-68
2023/07/19 05:07:44;;;;;;;1.77;0.90;;;20.60;3.60;;;;;;5071389;28;20186;-68
2023/07/19 05:10:12;;;;;;;2.97;0.70;;;20.60;3.10;;;;;;5072569;28;20266;-68
2023/07/19 05:12:39;;;;;;;3.60;0.97;;;20.70;3.70;;;;;;5074965;28;20191;-69
2023/07/19 05:15:08;;;;;;;4.93;1.10;;;20.80;10.60;;;;;;5076749;28;20535;-69
2023/07/19 05:17:36;;;;;;;8.37;1.40;;;20.40;13.80;;;;;;5076009;28;20313;-69
2023/07/19 05:20:06;;;;;;;5.63;1.10;;;20.10;14.80;;;;;;5076306;28;20595;-68
2023/07/19 05:22:33;;;;;;;4.10;1.43;;;20.10;16.90;;;;;;5076248;28;20180;-67
2023/07/19 05:25:03;;;;;;;3.77;1.10;;;19.80;17.90;;;;;;5075100;28;20184;-71
2023/07/19 05:27:31;;;;;;;6.40;1.30;;;19.40;18.80;;;;;;5076202;28;20271;-67
2023/07/19 05:29:58;;;;;;;3.60;1.07;;;19.30;19.40;;;;;;5076157;28;20190;-67
2023/07/19 05:32:26;;;;;;;3.43;1.20;;;19.10;20.20;;;;;;5076031;28;20172;-69
2023/07/19 05:34:54;;;;;;;3.30;1.30;;;18.90;20.80;;;;;;5076108;28;20181;-68
2023/07/19 05:37:22;;;;;;;4.90;1.13;;;18.40;22.20;;;;;;5075904;28;20182;-68
2023/07/19 05:39:50;;;;;;;6.20;1.20;;;18.20;23.40;;;;;;5076296;28;20215;-68
2023/07/19 05:42:18;;;;;;;3.93;1.60;;;17.90;25.60;;;;;;5074647;28;20545;-67
2023/07/19 05:44:45;;;;;;;4.70;1.20;;;17.50;27.90;;;;;;5075829;28;20179;-68
2023/07/19 05:47:13;;;;;;;6.90;1.60;;;17.40;30.50;;;;;;5075737;28;20205;-69
2023/07/19 05:49:41;;;;;;;3.27;1.23;;;17.20;33.20;;;;;;5075795;28;20178;-68
2023/07/19 05:52:09;;;;;;;7.70;1.40;;;16.80;34.90;;;;;;5074286;28;20203;-67
2023/07/19 05:54:36;;;;;;;10.07;1.80;;;16.70;40.90;;;;;;5075818;28;20206;-68
2023/07/19 05:57:04;;;;;;;5.03;1.50;;;16.40;43.20;;;;;;5075337;28;20208;-68
2023/07/19 05:59:32;;;;;;;5.10;1.43;;;16.30;46.80;;;;;;5075578;28;20211;-68
2023/07/19 06:02:00;;;;;;;9.57;1.40;;;16.30;50.40;;;;;;5074168;28;20172;-68
2023/07/19 06:04:28;;;;;;;5.47;1.07;;;16.10;53.60;;;;;;5075439;28;20180;-69
2023/07/19 06:06:56;;;;;;;6.73;1.70;;;16.00;56.60;;;;;;5075369;28;20168;-68
2023/07/19 06:09:24;;;;;;;4.97;1.33;;;15.90;59.60;;;;;;5075523;28;20176;-68
2023/07/19 06:11:56;;;;;;;4.57;1.40;;;15.70;66.90;;;;;;5075324;28;20214;-68
2023/07/19 06:14:25;;;;;;;6.33;1.50;;;15.70;74.90;;;;;;5075329;28;20259;-67
2023/07/19 06:16:53;;;;;;;11.13;1.77;;;15.60;80.80;;;;;;5074869;28;20639;-67
2023/07/19 06:19:20;;;;;;;4.50;1.60;;;15.50;84.80;;;;;;5075289;28;20687;-67
2023/07/19 06:21:48;;;;;;;8.23;1.80;;;15.40;91.10;;;;;;5073897;28;20183;-67
2023/07/19 06:24:16;;;;;;;12.90;1.73;;;15.40;93.30;;;;;;5074337;28;20186;-67
2023/07/19 06:26:43;;;;;;;7.10;1.77;;;15.20;95.70;;;;;;5074919;28;20183;-69
2023/07/19 06:29:11;;;;;;;5.07;1.70;;;15.10;97.40;;;;;;5075036;28;20175;-67
2023/07/19 06:31:39;;;;;;;9.10;1.73;;;15.10;99.90;;;;;;5075119;28;20209;-70
2023/07/19 06:34:07;;;;;;;5.70;1.67;;;14.90;99.90;;;;;;5075083;28;20180;-68
2023/07/19 06:37:29;;;;;;;6.33;2.10;;;14.80;99.90;;;;;;5074542;28;20180;-68
2023/07/19 06:39:57;;;;;;;6.97;1.83;;;14.80;99.90;;;;;;5074878;28;20595;-67
2023/07/19 06:42:24;;;;;;;5.10;1.70;;;14.60;99.90;;;;;;5075014;28;20167;-67
2023/07/19 06:44:53;;;;;;;5.13;1.97;;;14.60;99.90;;;;;;5074819;28;20175;-68
2023/07/19 06:47:21;;;;;;;7.60;1.87;;;14.60;99.90;;;;;;5074581;28;20187;-69
2023/07/19 06:49:49;;;;;;;11.13;1.80;;;14.50;99.90;;;;;;5074598;28;20168;-67
2023/07/19 06:52:17;;;;;;;6.30;1.80;;;14.30;99.90;;;;;;5073326;28;20198;-66
2023/07/19 06:54:44;;;;;;;12.43;2.50;;;14.30;99.90;;;;;;5074395;28;20250;-70
2023/07/19 06:57:12;;;;;;;5.33;1.60;;;14.20;99.90;;;;;;5074259;28;20181;-68
2023/07/19 06:59:40;;;;;;;7.53;2.00;;;14.20;99.90;;;;;;5074104;28;20221;-68
2023/07/19 07:02:08;;;;;;;9.90;1.70;;;14.00;99.90;;;;;;5074916;28;20632;-68
2023/07/19 07:04:36;;;;;;;5.63;1.80;;;13.90;99.90;;;;;;5074306;28;20184;-70
2023/07/19 07:07:04;;;;;;;8.37;1.90;;;13.80;99.90;;;;;;5074602;28;20271;-68
2023/07/19 07:09:32;;;;;;;11.30;2.03;;;13.70;99.90;;;;;;5074297;28;20183;-68
2023/07/19 07:11:59;;;;;;;5.03;1.70;;;13.50;99.90;;;;;;5072934;28;20695;-68
2023/07/19 07:14:27;;;;;;;5.90;1.93;;;13.40;99.90;;;;;;5072649;28;20193;-68
2023/07/19 07:16:55;;;;;;;13.97;2.10;;;13.30;99.90;;;;;;5073859;28;20237;-68
2023/07/19 07:19:23;;;;;;;4.50;2.17;;;13.10;99.90;;;;;;5073780;28;20757;-68
2023/07/19 07:21:51;;;;;;;5.13;1.70;;;12.90;99.90;;;;;;5074059;28;20203;-67
2023/07/19 07:24:19;;;;;;;11.27;2.10;;;12.80;99.90;;;;;;5073958;28;20235;-70
2023/07/19 07:26:47;;;;;;;8.03;1.53;;;12.70;99.90;;;;;;5072965;28;20174;-72
2023/07/19 07:29:15;;;;;;;8.80;2.63;;;12.60;99.90;;;;;;5072599;28;20273;-67
2023/07/19 07:31:42;;;;;;;8.33;1.67;;;12.70;99.90;;;;;;5072613;28;20519;-69
2023/07/19 07:34:12;;;;;;;10.37;2.00;;;12.60;99.90;;;;;;5069689;28;20178;-70
2023/07/19 07:36:41;;;;;;;7.47;2.20;;;12.60;99.90;;;;;;5047876;28;20188;-69
2023/07/19 07:39:08;;;;;;;10.93;2.20;;;12.40;99.90;;;;;;5074393;28;20220;-66
2023/07/19 07:41:36;;;;;;;10.93;2.47;;;12.30;99.90;;;;;;5071844;28;20182;-69
2023/07/19 07:44:04;;;;;;;8.27;2.00;;;12.20;99.90;;;;;;5071386;28;20247;-71
2023/07/19 07:46:32;;;;;;;10.07;1.87;;;12.10;99.90;;;;;;5070617;28;20263;-70
2023/07/19 07:49:00;;;;;;;5.40;1.80;;;11.90;99.90;;;;;;5071831;28;20169;-68
2023/07/19 07:51:29;;;;;;;6.47;1.97;;;11.80;99.90;;;;;;5071294;28;20182;-70
2023/07/19 07:53:57;;;;;;;9.67;2.30;;;11.70;99.90;;;;;;5071499;28;20301;-70
2023/07/19 07:56:27;;;;;;;6.67;2.30;;;11.60;99.90;;;;;;5070858;28;20180;-70
2023/07/19 07:58:55;;;;;;;6.83;2.33;;;11.50;99.90;;;;;;5071151;28;20687;-72
2023/07/19 08:01:23;;;;;;;7.77;2.23;;;11.50;99.90;;;;;;5071139;28;20184;-68
2023/07/19 08:03:51;;;;;;;7.30;2.00;;;11.40;99.90;;;;;;5071487;28;20198;-70
2023/07/19 08:06:19;;;;;;;8.83;2.27;;;11.30;99.90;;;;;;5070907;28;20265;-68
2023/07/19 08:08:47;;;;;;;5.63;1.83;;;11.20;99.90;;;;;;5070320;28;20400;-68
2023/07/19 08:11:14;;;;;;;10.00;2.40;;;11.10;99.90;;;;;;5071321;28;20173;-69
2023/07/19 08:13:42;;;;;;;6.03;2.37;;;11.00;99.90;;;;;;5071175;28;20239;-68
2023/07/19 08:16:10;;;;;;;5.50;1.90;;;10.90;99.90;;;;;;5071047;28;20282;-71
2023/07/19 08:18:38;;;;;;;8.10;2.60;;;10.80;99.90;;;;;;5069123;28;20702;-68
2023/07/19 08:21:07;;;;;;;4.83;2.00;;;10.70;99.90;;;;;;5071645;28;20171;-70
2023/07/19 08:23:35;;;;;;;4.20;2.10;;;10.60;99.90;;;;;;5071532;28;20173;-68
2023/07/19 08:26:02;;;;;;;8.27;2.53;;;10.50;99.90;;;;;;5071422;28;20184;-71
2023/07/19 08:28:33;;;;;;;8.47;2.33;;;10.40;99.90;;;;;;5071469;28;20295;-69
2023/07/19 08:31:05;;;;;;;10.03;2.60;;;10.30;99.90;;;;;;5071333;28;20202;-69
2023/07/19 08:33:33;;;;;;;11.50;2.80;;;10.30;99.90;;;;;;5071520;28;20264;-70
2023/07/19 08:36:01;;;;;;;9.00;2.80;;;10.30;99.90;;;;;;5069959;28;20192;-71
2023/07/19 08:38:29;;;;;;;8.67;2.77;;;10.30;99.90;;;;;;5071108;28;20206;-71
2023/07/19 08:41:05;;;;;;;10.87;2.90;;;10.20;99.90;;;;;;5071252;28;20406;-73
2023/07/19 08:43:37;;;;;;;11.00;3.00;;;10.20;99.90;;;;;;5071154;28;20669;-67
2023/07/19 08:46:05;;;;;;;10.43;2.90;;;10.10;99.90;;;;;;5072311;28;20231;-69
2023/07/19 08:48:33;;;;;;;7.23;3.10;;;10.00;99.90;;;;;;5075199;28;20196;-68
2023/07/19 08:51:02;;;;;;;10.67;3.20;;;10.00;99.90;;;;;;5073900;28;20180;-68
2023/07/19 08:53:29;;;;;;;8.53;3.20;;;9.90;99.90;;;;;;5075154;28;20185;-69
2023/07/19 08:55:58;;;;;;;12.37;3.80;;;9.90;99.90;;;;;;5074359;28;20195;-73
2023/07/19 08:58:26;;;;;;;8.27;3.53;;;9.90;99.90;;;;;;5074612;28;20242;-70
2023/07/19 09:00:56;;;;;;;13.53;3.30;;;9.80;99.90;;;;;;5074575;28;20767;-70
2023/07/19 09:03:24;;;;;;;11.07;4.53;;;9.70;99.90;;;;;;5075424;28;20173;-68
2023/07/19 09:05:54;;;;;;;38.83;25.47;;;9.70;99.90;;;;;;5082658;28;20187;-69
2023/07/19 09:08:33;;;;;;;42.33;27.50;;;9.70;99.90;;;;;;5095546;28;20186;-68
2023/07/19 09:11:01;;;;;;;34.27;21.43;;;9.70;99.90;;;;;;5095588;28;20225;-70
2023/07/19 09:13:35;;;;;;;25.03;15.87;;;9.70;99.90;;;;;;5075378;28;20266;-69
2023/07/19 09:16:09;;;;;;;23.17;12.07;;;9.60;99.90;;;;;;5074982;28;20277;-69
2023/07/19 09:18:38;;;;;;;23.13;10.90;;;9.50;99.90;;;;;;5074874;28;20220;-71
2023/07/19 09:21:06;;;;;;;16.57;7.90;;;9.40;99.90;;;;;;5074446;28;20190;-70
2023/07/19 09:23:40;;;;;;;18.47;8.83;;;9.30;99.90;;;;;;5074879;28;20192;-68
2023/07/19 09:26:08;;;;;;;15.13;7.53;;;9.30;99.90;;;;;;5073591;28;20181;-70
2023/07/19 09:28:36;;;;;;;20.43;7.90;;;9.20;99.90;;;;;;5074652;28;20176;-71
2023/07/19 09:31:05;;;;;;;14.70;8.20;;;9.10;99.90;;;;;;5074600;28;20177;-67
2023/07/19 09:33:33;;;;;;;17.27;8.90;;;9.10;99.90;;;;;;5074580;28;20186;-69
2023/07/19 09:36:01;;;;;;;17.17;8.43;;;9.00;99.90;;;;;;5074539;28;20636;-68
2023/07/19 09:38:29;;;;;;;17.40;8.23;;;9.00;99.90;;;;;;5072838;28;20223;-70
2023/07/19 09:41:06;;;;;;;18.67;8.70;;;8.90;99.90;;;;;;5074327;28;20188;-71
2023/07/19 09:43:35;;;;;;;18.07;7.10;;;8.90;99.90;;;;;;5074681;28;20583;-69
2023/07/19 09:46:04;;;;;;;20.67;8.03;;;8.80;99.90;;;;;;5084793;28;20257;-70
2023/07/19 09:48:32;;;;;;;14.60;6.70;;;8.80;99.90;;;;;;5073238;28;20277;-69
2023/07/19 09:51:05;;;;;;;13.87;7.13;;;8.70;99.90;;;;;;5073038;28;20200;-71
2023/07/19 09:53:37;;;;;;;15.47;7.13;;;8.70;99.90;;;;;;5074146;28;20631;-74
2023/07/19 09:56:07;;;;;;;17.27;7.47;;;8.70;99.90;;;;;;5072881;28;20219;-71
2023/07/19 09:58:35;;;;;;;13.30;7.67;;;8.60;99.90;;;;;;5072815;28;20729;-72
2023/07/19 10:01:03;;;;;;;15.77;6.80;;;8.50;99.90;;;;;;5054204;28;20193;-71
2023/07/19 10:03:35;;;;;;;18.53;7.37;;;8.50;99.90;;;;;;5053531;28;20631;-71
2023/07/19 10:06:03;;;;;;;18.17;8.23;;;8.50;99.90;;;;;;5063889;28;20188;-70
2023/07/19 10:08:37;;;;;;;16.07;7.63;;;8.50;99.90;;;;;;5072578;28;20282;-70
2023/07/19 10:11:05;;;;;;;16.20;7.93;;;8.40;99.90;;;;;;5075206;28;20267;-71
2023/07/19 10:13:53;;;;;;;21.67;8.80;;;8.40;99.90;;;;;;5071940;28;20244;-68
2023/07/19 10:16:25;;;;;;;22.23;9.50;;;8.30;99.90;;;;;;5073002;28;20230;-71
2023/07/19 10:19:14;;;;;;;18.20;8.67;;;8.30;99.90;;;;;;5073324;28;20575;-66
2023/07/19 10:22:06;;;;;;;16.53;8.47;;;8.30;99.90;;;;;;5073485;28;20278;-69
2023/07/19 10:24:36;;;;;;;16.57;8.67;;;8.30;99.90;;;;;;5073189;28;20200;-70
2023/07/19 10:27:41;;;;;;;15.63;8.60;;;8.20;99.90;;;;;;5073213;28;20168;-70
2023/07/19 10:30:09;;;;;;;20.50;8.73;;;8.10;99.90;;;;;;5073000;28;20188;-72
2023/07/19 10:32:37;;;;;;;23.80;8.83;;;8.10;99.90;;;;;;5071804;28;20188;-72
2023/07/19 10:35:31;;;;;;;18.10;8.87;;;8.10;99.90;;;;;;5072150;28;20186;-70
2023/07/19 10:37:58;;;;;;;16.97;9.13;;;8.10;99.90;;;;;;5073208;28;20618;-68
2023/07/19 10:40:26;;;;;;;17.60;8.30;;;8.10;99.90;;;;;;5073063;28;20979;-70
2023/07/19 10:42:57;;;;;;;16.67;8.07;;;8.00;99.90;;;;;;5072555;28;20177;-72
2023/07/19 10:45:26;;;;;;;16.93;9.07;;;8.00;99.90;;;;;;5072954;28;20183;-71
2023/07/19 10:47:58;;;;;;;18.33;8.17;;;8.00;99.90;;;;;;5073012;28;20180;-70
2023/07/19 10:50:26;;;;;;;14.83;7.47;;;7.90;99.90;;;;;;5072506;28;20187;-70
2023/07/19 10:52:54;;;;;;;17.47;8.10;;;7.90;99.90;;;;;;5072731;28;20172;-68
2023/07/19 10:55:23;;;;;;;19.77;7.67;;;7.80;99.90;;;;;;5073009;28;20755;-72
2023/07/19 10:57:51;;;;;;;12.80;7.13;;;7.80;99.90;;;;;;5077900;28;20179;-70
2023/07/19 11:00:19;;;;;;;16.47;6.57;;;7.80;99.90;;;;;;5080803;28;20186;-68
2023/07/19 11:02:47;;;;;;;14.00;7.27;;;7.80;99.90;;;;;;5092690;28;20171;-68
2023/07/19 11:05:17;;;;;;;19.10;6.70;;;7.70;99.90;;;;;;5081005;28;20188;-69
2023/07/19 11:07:47;;;;;;;10.67;5.93;;;7.70;99.90;;;;;;5072532;28;20179;-69
2023/07/19 11:10:15;;;;;;;16.73;5.73;;;7.60;99.90;;;;;;5072213;28;20219;-73
2023/07/19 11:12:43;;;;;;;13.30;5.93;;;7.60;99.90;;;;;;5070929;28;20188;-67
2023/07/19 11:15:14;;;;;;;13.90;5.43;;;7.50;99.90;;;;;;5072362;28;20569;-70
2023/07/19 11:17:42;;;;;;;11.57;5.17;;;7.50;99.90;;;;;;5071775;28;20238;-72
2023/07/19 11:20:10;;;;;;;12.40;5.57;;;7.40;99.90;;;;;;5071867;28;20271;-68
2023/07/19 11:22:38;;;;;;;18.63;5.57;;;7.40;99.90;;;;;;5072017;28;20529;-68
2023/07/19 11:25:11;;;;;;;13.07;5.30;;;7.40;99.90;;;;;;5071981;28;20182;-70
2023/07/19 11:27:39;;;;;;;12.83;5.67;;;7.30;99.90;;;;;;5071995;28;20258;-69
2023/07/19 11:30:07;;;;;;;16.10;5.53;;;7.30;99.90;;;;;;5071571;28;20218;-68
2023/07/19 11:32:38;;;;;;;14.97;5.83;;;7.20;99.90;;;;;;5071980;28;20601;-66
2023/07/19 11:35:06;;;;;;;13.30;5.20;;;7.20;99.90;;;;;;5071368;28;20192;-69
2023/07/19 11:37:38;;;;;;;14.13;5.80;;;7.10;99.90;;;;;;5071828;28;20186;-69
2023/07/19 11:40:16;;;;;;;13.07;5.30;;;7.10;99.90;;;;;;5071822;28;20590;-69
2023/07/19 11:42:48;;;;;;;15.73;5.60;;;7.10;99.90;;;;;;5071805;28;20521;-68
2023/07/19 11:45:23;;;;;;;13.30;5.03;;;7.10;99.90;;;;;;5071550;28;20276;-69
2023/07/19 11:47:56;;;;;;;18.00;5.53;;;7.00;99.90;;;;;;5071615;28;20173;-70
2023/07/19 11:50:24;;;;;;;11.10;4.90;;;7.00;99.90;;;;;;5071590;28;20275;-70
2023/07/19 11:53:00;;;;;;;13.93;4.87;;;7.00;99.90;;;;;;5071582;28;20179;-68
2023/07/19 11:55:29;;;;;;;13.87;6.00;;;6.90;99.90;;;;;;5070293;28;20187;-69
2023/07/19 11:58:03;;;;;;;11.70;5.90;;;6.90;99.90;;;;;;5071345;28;20216;-70
2023/07/19 12:00:34;;;;;;;16.03;5.63;;;6.90;99.90;;;;;;5071432;28;20633;-69
2023/07/19 12:03:02;;;;;;;17.63;6.43;;;6.70;99.90;;;;;;5081758;28;20186;-71
2023/07/19 12:05:30;;;;;;;18.27;7.13;;;6.70;99.90;;;;;;5079200;28;20546;-67
2023/07/19 12:07:57;;;;;;;16.53;7.07;;;6.70;99.90;;;;;;5082445;28;20259;-69
2023/07/19 12:10:26;;;;;;;15.87;6.53;;;6.70;99.90;;;;;;5079651;28;20333;-67
2023/07/19 12:12:54;;;;;;;12.30;6.80;;;6.70;99.90;;;;;;5076642;28;20181;-68
2023/07/19 12:15:22;;;;;;;15.13;6.70;;;6.70;99.90;;;;;;5073642;28;20253;-71
2023/07/19 12:17:51;;;;;;;11.30;7.20;;;6.60;99.90;;;;;;5070975;28;20314;-71
2023/07/19 12:20:19;;;;;;;16.07;7.50;;;6.60;99.90;;;;;;5070838;28;20180;-71
2023/07/19 12:22:47;;;;;;;15.73;5.07;;;6.60;99.90;;;;;;5071191;28;20171;-68
2023/07/19 12:25:15;;;;;;;12.23;5.20;;;6.70;99.90;;;;;;5070825;28;20226;-70
2023/07/19 12:27:43;;;;;;;14.50;6.20;;;6.60;99.90;;;;;;5069911;28;20544;-68
2023/07/19 12:30:11;;;;;;;14.93;6.63;;;6.50;99.90;;;;;;5069212;28;20183;-68
2023/07/19 12:32:39;;;;;;;13.77;5.20;;;6.40;99.90;;;;;;5070955;28;20176;-69
2023/07/19 12:35:06;;;;;;;11.27;5.40;;;6.30;99.90;;;;;;5070966;28;20199;-68
2023/07/19 12:37:33;;;;;;;19.57;5.80;;;6.20;99.90;;;;;;5070923;28;20183;-70
2023/07/19 12:40:05;;;;;;;16.90;6.17;;;6.20;99.90;;;;;;5070799;28;20311;-71
2023/07/19 12:42:33;;;;;;;12.27;6.17;;;6.10;99.90;;;;;;5070802;28;20228;-68
2023/07/19 12:45:00;;;;;;;15.40;5.87;;;6.10;99.90;;;;;;5070733;28;20226;-68
2023/07/19 12:47:27;;;;;;;17.03;5.97;;;6.10;99.90;;;;;;5071106;28;20184;-68
2023/07/19 12:49:55;;;;;;;12.63;6.00;;;6.00;99.90;;;;;;5070831;28;20189;-67
2023/07/19 12:52:22;;;;;;;11.53;5.87;;;6.00;99.90;;;;;;5069764;28;20192;-68
2023/07/19 12:54:49;;;;;;;12.20;6.10;;;5.90;99.90;;;;;;5070777;28;20187;-68
2023/07/19 12:57:17;;;;;;;17.53;6.80;;;5.90;99.90;;;;;;5070622;28;20180;-67